Time;durP1;ratioP1;P1;durP2;ratioP2;P2;SDS_P1;SDS_P2;PMS_P1;PMS_P2;Temp;Humidity;BMP_temperature;BMP_pressure;BME280_temperature;BME280_humidity;BME280_pressure;Samples;Min_cycle;Max_cycle;Signal;HPM_P1;HPM_P2
2023/08/03 00:06:03;;;;;;;2.03;1.00;;;;;;;17.28;76.05;99051.81;15415785;28;20051;-51
2023/08/03 00:13:36;;;;;;;2.38;1.00;;;;;;;17.08;76.69;99045.59;15429324;28;20105;-51
2023/08/03 00:21:14;;;;;;;2.03;1.25;;;;;;;17.24;76.97;99051.59;15393243;28;20045;-54
2023/08/03 00:28:49;;;;;;;3.03;1.30;;;;;;;17.36;76.66;99053.03;15432599;28;20113;-55
2023/08/03 00:36:24;;;;;;;3.40;1.45;;;;;;;17.35;77.91;99065.81;15356916;28;20047;-52
2023/08/03 00:43:57;;;;;;;4.57;1.33;;;;;;;17.76;76.61;99062.41;15394889;28;20076;-54
2023/08/03 00:51:31;;;;;;;;;;;;;;;17.76;75.84;99062.41;15414715;28;20046;-51
2023/08/03 00:59:07;;;;;;;3.22;1.55;;;;;;;17.67;76.53;99078.53;15413485;28;19922;-53
2023/08/03 01:06:42;;;;;;;5.28;1.70;;;;;;;17.74;76.53;99062.72;15430322;28;20473;-51
2023/08/03 01:14:15;;;;;;;3.33;1.60;;;;;;;17.69;76.57;99067.41;15410077;28;20090;-52
2023/08/03 01:21:51;;;;;;;3.33;1.70;;;;;;;17.80;75.68;99082.44;15416974;28;20349;-54
2023/08/03 01:29:25;;;;;;;4.30;1.73;;;;;;;17.65;75.95;99101.66;15423111;28;20046;-55
2023/08/03 01:36:58;;;;;;;3.42;1.40;;;;;;;17.28;77.24;99111.47;15424129;28;20135;-52
2023/08/03 01:44:33;;;;;;;3.45;2.00;;;;;;;17.37;77.05;99117.03;15406620;28;20038;-54
2023/08/03 01:52:06;;;;;;;3.35;1.90;;;;;;;17.01;78.15;99107.50;15436090;28;20405;-52
2023/08/03 01:59:40;;;;;;;2.72;2.13;;;;;;;16.97;79.17;99144.44;15410331;28;20141;-54
2023/08/03 02:07:16;;;;;;;5.88;2.10;;;;;;;17.53;77.25;99143.63;15421387;28;20507;-51
2023/08/03 02:14:52;;;;;;;5.43;2.17;;;;;;;17.11;78.53;99130.94;15421890;28;20724;-52
2023/08/03 02:22:26;;;;;;;7.60;2.83;;;;;;;17.53;77.33;99131.94;15421397;28;20050;-52
2023/08/03 02:30:00;;;;;;;;;;;;;;;17.67;76.83;99121.97;15421338;28;20519;-52
2023/08/03 02:37:37;;;;;;;3.95;1.98;;;;;;;17.05;78.99;99124.00;15422121;28;19926;-53
2023/08/03 02:45:19;;;;;;;4.10;2.20;;;;;;;17.14;78.41;99121.44;15428066;28;20496;-51
2023/08/03 02:52:52;;;;;;;7.28;2.17;;;;;;;17.15;78.21;99110.28;15418043;28;20043;-54
2023/08/03 03:00:27;;;;;;;7.22;2.28;;;;;;;17.03;79.00;99116.16;15417164;28;20035;-51
2023/08/03 03:08:01;;;;;;;2.60;1.80;;;;;;;17.23;78.01;99117.78;15417684;28;20043;-52
2023/08/03 03:15:39;;;;;;;3.60;2.20;;;;;;;17.18;77.97;99117.84;15417540;28;20035;-51
2023/08/03 03:23:13;;;;;;;3.00;1.90;;;;;;;17.03;78.16;99118.06;15415723;28;20488;-52
2023/08/03 03:30:47;;;;;;;5.25;2.20;;;;;;;16.42;79.06;99049.22;15413444;28;20473;-53
2023/08/03 03:38:21;;;;;;;5.10;2.10;;;;;;;17.08;78.07;99116.09;15393052;28;20054;-51
2023/08/03 03:45:58;;;;;;;9.30;2.20;;;;;;;17.15;77.49;99109.47;15416117;28;20122;-51
2023/08/03 03:53:34;;;;;;;6.30;2.00;;;;;;;17.26;76.94;99111.78;15376947;28;20146;-52
2023/08/03 04:01:16;;;;;;;5.95;1.85;;;;;;;17.22;76.19;99105.31;15394801;28;20039;-55
2023/08/03 04:08:49;;;;;;;7.15;1.80;;;;;;;17.40;75.18;99106.41;15415484;28;20062;-53
2023/08/03 04:16:25;;;;;;;11.93;2.40;;;;;;;17.42;75.45;99111.53;15415280;28;20161;-55
2023/08/03 04:23:58;;;;;;;8.20;1.83;;;;;;;17.25;75.46;99110.16;15413983;28;20050;-57
2023/08/03 04:31:32;;;;;;;;;;;;;;;17.64;74.67;99111.72;15413881;28;20070;-53
2023/08/03 04:39:08;;;;;;;9.18;1.73;;;;;;;17.71;73.52;99112.13;15426420;28;20362;-52
2023/08/03 04:46:44;;;;;;;9.10;2.00;;;;;;;17.40;73.64;99111.84;15413919;28;20126;-55
2023/08/03 04:54:17;;;;;;;8.50;1.80;;;;;;;17.54;72.72;99101.84;15399128;28;20046;-52
2023/08/03 05:01:52;;;;;;;11.18;1.92;;;;;;;17.61;71.62;99104.16;15441767;28;20415;-54
2023/08/03 05:09:26;;;;;;;5.63;1.90;;;;;;;17.89;70.58;99101.56;15408820;28;20497;-53
2023/08/03 05:17:00;;;;;;;9.80;2.08;;;;;;;17.96;70.45;99102.78;15422761;28;20110;-52
2023/08/03 05:24:33;;;;;;;8.38;2.00;;;;;;;18.49;67.92;99098.78;15424759;28;20043;-55
2023/08/03 05:32:08;;;;;;;;;;;;;;;18.25;68.05;99105.22;15441341;28;20053;-52
2023/08/03 05:39:41;;;;;;;7.22;1.35;;;;;;;18.36;67.67;99103.91;15362890;29;19922;-51
2023/08/03 05:47:17;;;;;;;;;;;;;;;18.53;67.40;99108.75;15394421;28;20512;-53
2023/08/03 05:54:50;;;;;;;9.95;1.67;;;;;;;19.23;65.26;99106.75;15420703;28;19965;-51
2023/08/03 06:02:33;;;;;;;7.72;1.85;;;;;;;18.99;65.49;99107.03;15438986;28;20057;-53
2023/08/03 06:10:10;;;;;;;7.97;1.33;;;;;;;19.59;63.88;99117.59;15439108;28;20074;-54
2023/08/03 06:17:45;;;;;;;9.45;1.35;;;;;;;19.97;62.41;99119.94;15378736;28;20043;-54
2023/08/03 06:25:20;;;;;;;10.30;1.45;;;;;;;20.23;60.52;99136.41;15378188;29;20556;-54
2023/08/03 06:32:56;;;;;;;8.07;1.50;;;;;;;20.32;60.84;99131.81;15377047;29;20115;-51
2023/08/03 06:40:29;;;;;;;6.35;1.50;;;;;;;20.81;58.94;99119.81;15378595;28;20579;-55
2023/08/03 06:48:03;;;;;;;5.25;1.30;;;;;;;20.83;58.18;99141.31;15486431;28;20065;-55
2023/08/03 06:55:39;;;;;;;6.18;1.45;;;;;;;20.84;59.02;99145.63;15497030;28;20515;-50
2023/08/03 07:03:14;;;;;;;5.88;1.52;;;;;;;20.03;59.49;99163.06;15483108;28;20038;-50
2023/08/03 07:10:47;;;;;;;4.70;1.13;;;;;;;20.07;59.58;99169.50;15491688;28;20042;-53
2023/08/03 07:18:22;;;;;;;6.07;1.25;;;;;;;20.04;59.08;99174.75;15434440;28;20047;-55
2023/08/03 07:25:56;;;;;;;2.42;0.60;;;;;;;20.32;57.69;99178.13;15435750;28;20051;-56
2023/08/03 07:33:34;;;;;;;4.03;0.75;;;;;;;20.50;58.07;99193.47;15435696;28;20050;-51
2023/08/03 07:41:07;;;;;;;4.72;1.00;;;;;;;21.08;56.50;99186.16;15435006;28;20153;-53
2023/08/03 07:48:43;;;;;;;2.40;0.57;;;;;;;21.19;55.60;99184.72;15433649;28;20066;-56
2023/08/03 07:56:17;;;;;;;7.78;0.93;;;;;;;22.37;52.94;99184.53;15416179;28;20483;-54
2023/08/03 08:03:51;;;;;;;2.83;0.75;;;;;;;21.38;54.37;99192.63;15431738;28;20051;-52
2023/08/03 08:11:24;;;;;;;2.83;0.70;;;;;;;21.76;54.10;99202.94;15423610;28;20051;-50
2023/08/03 08:18:59;;;;;;;2.85;0.35;;;;;;;21.02;54.55;99218.22;15372406;29;20493;-55
2023/08/03 08:26:32;;;;;;;5.97;0.50;;;;;;;22.40;53.07;99201.09;15373033;29;20131;-56
2023/08/03 08:34:07;;;;;;;2.67;0.40;;;;;;;22.13;52.22;99213.19;15433898;28;20050;-51
2023/08/03 08:41:41;;;;;;;6.50;0.60;;;;;;;22.05;53.59;99216.72;15487797;28;20055;-51
2023/08/03 08:49:15;;;;;;;3.30;0.55;;;;;;;22.25;51.63;99209.81;15504632;28;20051;-53
2023/08/03 08:56:50;;;;;;;1.45;0.40;;;;;;;22.74;51.40;99223.97;15487187;28;20046;-51
2023/08/03 09:04:29;;;;;;;1.95;0.55;;;;;;;22.85;50.92;99232.63;15486187;28;20053;-55
2023/08/03 09:12:05;;;;;;;3.28;0.57;;;;;;;22.65;50.87;99225.91;15489364;28;20070;-51
2023/08/03 09:19:39;;;;;;;4.32;0.30;;;;;;;23.01;50.01;99228.22;15442855;28;20126;-53
2023/08/03 09:27:17;;;;;;;1.60;0.40;;;;;;;22.13;50.49;99243.25;15442291;28;20046;-52
2023/08/03 09:34:52;;;;;;;5.00;0.45;;;;;;;22.29;50.54;99254.50;15441854;28;20524;-51
2023/08/03 09:42:27;;;;;;;3.65;0.60;;;;;;;21.74;50.61;99270.72;15441519;28;20061;-54
2023/08/03 09:50:18;;;;;;;2.00;0.20;;;;;;;21.82;52.11;99272.66;15440943;28;20106;-53
2023/08/03 09:57:59;;;;;;;2.75;0.38;;;;;;;22.16;51.24;99274.63;15423352;28;20051;-55
2023/08/03 10:05:39;;;;;;;1.33;0.30;;;;;;;22.80;51.69;99262.88;15440576;28;20077;-53
2023/08/03 10:13:12;;;;;;;3.05;0.40;;;;;;;22.78;50.80;99270.63;15415861;28;20547;-50
2023/08/03 10:20:48;;;;;;;4.30;0.47;;;;;;;23.59;49.30;99250.41;15379052;29;20051;-52
2023/08/03 10:28:21;;;;;;;6.40;0.52;;;;;;;21.97;53.76;99277.66;15378611;29;20484;-50
2023/08/03 10:35:56;;;;;;;3.85;0.60;;;;;;;22.65;52.22;99281.44;15378454;29;20047;-52
2023/08/03 10:43:29;;;;;;;2.47;0.30;;;;;;;23.82;49.69;99261.88;15377871;29;20035;-54
2023/08/03 10:51:04;;;;;;;1.50;0.22;;;;;;;23.27;49.32;99277.38;15380305;29;20086;-53
2023/08/03 10:58:48;;;;;;;2.95;0.40;;;;;;;23.00;50.70;99286.03;15376785;29;20065;-51
2023/08/03 11:06:24;;;;;;;2.00;0.52;;;;;;;22.51;51.07;99290.97;15376719;28;20547;-52
2023/08/03 11:13:58;;;;;;;2.88;0.20;;;;;;;22.21;51.32;99279.13;15405908;28;20045;-52
2023/08/03 11:21:41;;;;;;;1.00;0.20;;;;;;;22.81;49.62;99303.59;15794943;27;20438;-51
2023/08/03 11:29:14;;;;;;;2.60;0.32;;;;;;;22.31;50.36;99301.44;15793872;28;20064;-54
2023/08/03 11:36:50;;;;;;;1.67;0.32;;;;;;;21.64;54.92;99321.81;15793745;28;20033;-51
2023/08/03 11:44:24;;;;;;;1.02;0.20;;;;;;;23.32;50.25;99307.28;15792397;28;20052;-52
2023/08/03 11:52:00;;;;;;;2.45;0.43;;;;;;;23.67;47.85;99296.94;15793310;28;20098;-54
2023/08/03 11:59:33;;;;;;;0.65;0.22;;;;;;;22.84;47.64;99299.41;15792065;28;20516;-55
2023/08/03 12:07:08;;;;;;;1.92;0.47;;;;;;;22.69;50.13;99328.09;15792456;28;20143;-55
2023/08/03 12:14:41;;;;;;;4.75;0.50;;;;;;;21.89;51.52;99333.88;15789780;28;20048;-57
2023/08/03 12:22:15;;;;;;;1.75;0.35;;;;;;;22.03;50.62;99347.41;15789740;28;20056;-56
2023/08/03 12:29:48;;;;;;;1.23;0.30;;;;;;;22.35;49.20;99332.47;15766921;28;20041;-58
2023/08/03 12:37:25;;;;;;;0.82;0.38;;;;;;;22.19;48.37;99349.69;15748260;28;20097;-57
2023/08/03 12:44:58;;;;;;;2.22;0.55;;;;;;;21.14;53.71;99406.69;15748557;28;20090;-56
2023/08/03 12:52:34;;;;;;;4.53;0.38;;;;;;;20.99;53.76;99411.75;15746403;28;20094;-56
2023/08/03 13:00:08;;;;;;;2.58;0.32;;;;;;;21.73;52.13;99394.75;15728855;28;20067;-54
2023/08/03 13:07:43;;;;;;;2.88;0.50;;;;;;;22.57;50.19;99401.78;15746416;28;20047;-57
2023/08/03 13:15:16;;;;;;;1.75;0.38;;;;;;;22.15;51.74;99401.47;15703155;28;20120;-54
2023/08/03 13:22:51;;;;;;;1.55;0.45;;;;;;;22.25;51.99;99420.28;15682401;28;20051;-55
2023/08/03 13:30:24;;;;;;;1.23;0.40;;;;;;;21.76;52.05;99421.44;15683756;28;20106;-54
2023/08/03 13:37:58;;;;;;;2.50;0.60;;;;;;;21.64;52.37;99432.97;15680904;28;20095;-53
2023/08/03 13:45:32;;;;;;;0.93;0.30;;;;;;;21.88;53.11;99429.84;15682399;28;20189;-54
2023/08/03 13:53:06;;;;;;;1.70;0.40;;;;;;;21.86;50.96;99457.44;15681405;28;20413;-53
2023/08/03 14:00:39;;;;;;;1.50;0.20;;;;;;;21.89;51.34;99447.81;15680122;28;20033;-56
2023/08/03 14:08:13;;;;;;;2.17;0.57;;;;;;;22.52;50.55;99437.50;15681117;28;20147;-58
2023/08/03 14:15:47;;;;;;;3.70;0.40;;;;;;;22.28;50.32;99459.84;15724944;28;20059;-54
2023/08/03 14:23:23;;;;;;;3.35;0.70;;;;;;;21.57;56.01;99451.72;15746559;28;20040;-53
2023/08/03 14:30:59;;;;;;;1.25;0.35;;;;;;;21.41;54.50;99491.47;15740802;28;20064;-55
2023/08/03 14:38:37;;;;;;;2.63;0.35;;;;;;;20.53;58.72;99502.81;15739594;28;20119;-55
2023/08/03 14:46:11;;;;;;;4.30;0.47;;;;;;;20.30;60.76;99513.63;15724801;28;20461;-55
2023/08/03 14:53:46;;;;;;;0.60;0.30;;;;;;;20.50;61.08;99517.84;15737794;28;20106;-54
2023/08/03 15:01:19;;;;;;;0.43;0.30;;;;;;;20.80;60.27;99526.50;15721574;28;20486;-53
2023/08/03 15:08:55;;;;;;;1.67;0.30;;;;;;;21.21;59.35;99520.03;15720130;28;20051;-56
2023/08/03 15:16:32;;;;;;;1.73;0.43;;;;;;;20.75;59.58;99535.59;15688185;28;20056;-54
2023/08/03 15:24:06;;;;;;;3.70;0.40;;;;;;;21.23;59.33;99545.13;15676541;28;20044;-53
2023/08/03 15:31:41;;;;;;;2.88;0.32;;;;;;;20.98;61.00;99547.31;15677530;28;20042;-54
2023/08/03 15:39:15;;;;;;;3.25;0.68;;;;;;;20.98;61.28;99539.13;15675707;28;20068;-53
2023/08/03 15:46:48;;;;;;;1.48;0.40;;;;;;;20.99;62.47;99543.50;15678060;28;20043;-55
2023/08/03 15:54:23;;;;;;;2.55;0.50;;;;;;;21.00;62.59;99544.31;15703880;28;20052;-52
2023/08/03 16:01:56;;;;;;;1.52;0.50;;;;;;;21.05;61.04;99542.25;15676374;28;20453;-56
2023/08/03 16:09:30;;;;;;;1.25;0.30;;;;;;;21.21;61.40;99558.25;15697505;28;20044;-52
2023/08/03 16:17:04;;;;;;;1.33;0.50;;;;;;;20.97;63.27;99558.53;15700012;28;20075;-53
2023/08/03 16:24:38;;;;;;;4.03;0.60;;;;;;;19.97;64.48;99591.94;15690743;28;20207;-52
2023/08/03 16:32:11;;;;;;;2.20;0.63;;;;;;;19.89;67.70;99587.16;15744280;28;20040;-52
2023/08/03 16:39:46;;;;;;;1.60;0.38;;;;;;;19.88;67.86;99626.41;15737984;28;20504;-54
2023/08/03 16:47:19;;;;;;;1.83;0.60;;;;;;;19.70;69.62;99654.50;15769767;28;20063;-55
2023/08/03 16:54:54;;;;;;;2.35;0.77;;;;;;;19.28;73.15;99659.72;15745468;28;20485;-58
2023/08/03 17:02:27;;;;;;;2.05;0.55;;;;;;;18.50;75.52;99692.75;15726283;28;20049;-55
2023/08/03 17:10:02;;;;;;;2.00;0.63;;;;;;;18.21;77.73;99688.16;15706693;28;20040;-52
2023/08/03 17:17:35;;;;;;;1.48;0.63;;;;;;;19.07;74.97;99678.25;15736638;28;20048;-52
2023/08/03 17:25:10;;;;;;;2.67;0.60;;;;;;;18.91;75.66;99681.44;15718985;28;20061;-54
2023/08/03 17:32:43;;;;;;;2.38;0.60;;;;;;;18.93;76.16;99696.38;15736706;28;20076;-54
2023/08/03 17:40:18;;;;;;;1.95;0.63;;;;;;;18.79;76.56;99717.19;15726326;28;20456;-53
2023/08/03 17:47:51;;;;;;;3.28;0.60;;;;;;;19.07;76.40;99718.22;15742896;28;20067;-54
2023/08/03 17:55:26;;;;;;;8.85;0.88;;;;;;;19.21;75.54;99716.41;15741645;28;20040;-57
2023/08/03 18:02:59;;;;;;;6.43;0.80;;;;;;;19.08;75.21;99715.22;15744124;28;20127;-56
2023/08/03 18:10:33;;;;;;;;;;;;;;;19.01;75.06;99738.41;15704352;22;20075;-57
2023/08/03 18:18:06;;;;;;;2.00;0.70;;;;;;;18.89;75.24;99757.06;15671260;28;19978;-57
2023/08/03 18:25:40;;;;;;;5.20;1.08;;;;;;;19.36;73.16;99751.59;15641160;28;20069;-57
2023/08/03 18:33:13;;;;;;;0.90;0.70;;;;;;;18.89;75.03;99774.19;15593115;28;20056;-59
2023/08/03 18:40:50;;;;;;;3.47;1.90;;;;;;;18.85;75.15;99782.13;15592306;28;20220;-59
2023/08/03 18:48:23;;;;;;;2.83;0.60;;;;;;;18.12;77.09;99798.50;15609691;28;20475;-58
2023/08/03 18:56:02;;;;;;;5.05;1.15;;;;;;;18.66;74.64;99805.66;15591174;28;20044;-55
2023/08/03 19:03:37;;;;;;;1.27;0.73;;;;;;;18.93;73.54;99809.75;15609466;28;20049;-56
2023/08/03 19:11:13;;;;;;;2.83;0.80;;;;;;;18.90;73.72;99824.75;15609445;28;20095;-55
2023/08/03 19:18:46;;;;;;;2.28;0.93;;;;;;;18.67;74.04;99834.47;15599853;28;20398;-58
2023/08/03 19:26:20;;;;;;;;;;;;;;;18.02;76.45;99844.75;15608924;28;20438;-59
2023/08/03 19:33:53;;;;;;;2.22;0.80;;;;;;;17.73;76.99;99861.75;15590274;28;19929;-58
2023/08/03 19:41:27;;;;;;;;;;;;;;;18.36;74.89;99861.06;15586001;28;20160;-54
2023/08/03 19:49:00;;;;;;;3.33;0.80;;;;;;;18.21;74.05;99861.19;15635407;28;19943;-56
2023/08/03 19:56:35;;;;;;;1.00;0.75;;;;;;;18.25;74.49;99859.53;15641878;28;20063;-55
2023/08/03 20:04:08;;;;;;;2.10;0.90;;;;;;;18.38;73.42;99863.53;15628065;28;20132;-54
2023/08/03 20:11:42;;;;;;;;;;;;;;;18.29;73.58;99880.41;15616096;28;20049;-58
2023/08/03 20:19:15;;;;;;;4.05;1.20;;;;;;;18.55;71.69;99875.59;15625644;28;19921;-57
2023/08/03 20:26:49;;;;;;;;;;;;;;;18.60;71.77;99888.31;15618515;28;20049;-55
2023/08/03 20:34:22;;;;;;;1.00;0.80;;;;;;;18.70;70.99;99896.47;15599496;28;20266;-54
2023/08/03 20:41:57;;;;;;;2.95;0.85;;;;;;;18.58;71.14;99896.78;15617452;28;20041;-55
2023/08/03 20:49:30;;;;;;;2.40;1.00;;;;;;;18.54;70.92;99911.22;15597692;28;20046;-56
2023/08/03 20:57:05;;;;;;;2.58;1.17;;;;;;;18.36;71.48;99913.50;15617206;28;20042;-55
2023/08/03 21:04:38;;;;;;;4.13;1.20;;;;;;;18.27;70.78;99920.63;15596794;28;20521;-53
2023/08/03 21:12:13;;;;;;;1.60;1.00;;;;;;;18.09;71.27;99926.72;15629864;28;20060;-58
2023/08/03 21:19:48;;;;;;;1.20;0.90;;;;;;;17.51;72.24;99929.91;15598020;28;20550;-55
2023/08/03 21:27:23;;;;;;;3.10;1.00;;;;;;;17.65;71.89;99938.28;15614669;28;20120;-57
2023/08/03 21:34:56;;;;;;;3.03;0.88;;;;;;;17.93;70.27;99946.91;15595425;28;20144;-56
2023/08/03 21:42:30;;;;;;;;;;;;;;;18.00;70.03;99956.38;15613213;28;20045;-57
2023/08/03 21:50:04;;;;;;;2.20;0.90;;;;;;;18.06;69.91;99955.25;15597688;28;19921;-55
2023/08/03 21:57:38;;;;;;;2.47;0.90;;;;;;;18.06;70.59;99957.97;15603146;28;20049;-56
2023/08/03 22:05:11;;;;;;;3.22;0.80;;;;;;;17.55;71.93;99951.88;15612572;28;20552;-56
2023/08/03 22:12:50;;;;;;;3.88;0.77;;;;;;;17.78;70.60;99964.06;15627333;28;20060;-56
2023/08/03 22:20:23;;;;;;;2.05;0.82;;;;;;;17.86;70.14;99968.94;15613999;28;20099;-54
2023/08/03 22:27:57;;;;;;;0.95;0.60;;;;;;;18.06;69.86;99973.44;15626945;28;20136;-55
2023/08/03 22:35:31;;;;;;;2.92;0.80;;;;;;;17.52;70.19;99987.69;15626074;28;20111;-53
2023/08/03 22:43:06;;;;;;;2.90;0.90;;;;;;;17.84;70.45;99982.75;15625617;28;20138;-51
2023/08/03 22:50:39;;;;;;;2.95;0.90;;;;;;;17.93;69.35;99983.00;15625037;28;20061;-50
2023/08/03 22:58:14;;;;;;;0.95;0.70;;;;;;;17.77;70.63;99995.81;15564054;28;20108;-47
2023/08/03 23:05:47;;;;;;;2.20;0.82;;;;;;;17.19;71.87;100011.59;15530659;28;20202;-48
2023/08/03 23:13:22;;;;;;;2.45;0.90;;;;;;;17.62;70.85;100006.66;15580993;28;20091;-48
2023/08/03 23:20:56;;;;;;;2.20;0.90;;;;;;;17.03;72.49;100027.06;15652476;28;20044;-54
2023/08/03 23:28:31;;;;;;;2.65;1.10;;;;;;;17.67;70.74;100051.97;15614713;28;20042;-49
2023/08/03 23:36:05;;;;;;;3.95;1.17;;;;;;;17.50;71.54;100055.00;15532957;28;20076;-48
2023/08/03 23:43:39;;;;;;;2.35;1.00;;;;;;;17.44;71.60;100053.34;15547901;28;20100;-48
2023/08/03 23:51:12;;;;;;;5.60;1.15;;;;;;;17.38;72.48;100068.84;15589076;28;20406;-49
2023/08/03 23:58:47;;;;;;;2.63;1.33;;;;;;;17.31;72.71;100063.69;15606940;28;20065;-47
